Time;durP1;ratioP1;P1;durP2;ratioP2;P2;SDS_P1;SDS_P2;PMS_P1;PMS_P2;Temp;Humidity;BMP_temperature;BMP_pressure;BME280_temperature;BME280_humidity;BME280_pressure;Samples;Min_cycle;Max_cycle;Signal;HPM_P1;HPM_P2
2023/01/14 00:00:22;;;;;;;20.38;13.80;;;;;;;3.94;72.93;95061.00;5112127;28;20481;-72
2023/01/14 00:02:47;;;;;;;25.13;14.63;;;;;;;4.03;72.85;95088.78;5113293;28;20051;-73
2023/01/14 00:05:13;;;;;;;24.42;13.45;;;;;;;4.00;72.82;95083.00;5111956;28;20443;-73
2023/01/14 00:07:38;;;;;;;23.08;14.55;;;;;;;3.98;72.73;95085.66;5111337;28;20028;-73
2023/01/14 00:10:04;;;;;;;22.17;14.93;;;;;;;3.90;72.75;95064.66;5112065;28;20027;-73
2023/01/14 00:12:29;;;;;;;21.42;12.82;;;;;;;3.95;73.22;95077.25;5111955;28;20035;-73
2023/01/14 00:14:55;;;;;;;28.85;17.15;;;;;;;3.86;73.21;95070.03;5094901;28;20061;-73
2023/01/14 00:17:20;;;;;;;22.83;14.88;;;;;;;4.04;73.17;95079.38;5094343;28;20031;-73
2023/01/14 00:19:46;;;;;;;23.08;13.95;;;;;;;4.12;73.45;95089.22;5094676;28;20028;-73
2023/01/14 00:22:11;;;;;;;24.27;14.13;;;;;;;4.12;73.46;95086.66;5112002;28;20028;-73
2023/01/14 00:24:37;;;;;;;17.52;11.52;;;;;;;4.05;73.46;95085.34;5113276;28;20028;-73
2023/01/14 00:27:02;;;;;;;18.55;11.82;;;;;;;4.06;73.67;95081.84;5111345;28;20073;-72
2023/01/14 00:29:31;;;;;;;18.73;11.25;;;;;;;4.03;73.65;95083.66;5111460;28;20099;-73
2023/01/14 00:31:58;;;;;;;19.02;12.60;;;;;;;4.01;73.66;95070.06;5078028;28;20084;-72
2023/01/14 00:34:25;;;;;;;20.48;12.48;;;;;;;4.08;73.41;95074.88;5094754;28;20043;-73
2023/01/14 00:36:50;;;;;;;21.42;12.73;;;;;;;4.01;73.64;95066.66;5110392;28;20035;-73
2023/01/14 00:39:16;;;;;;;23.88;13.90;;;;;;;3.84;73.38;95033.28;5111481;28;20069;-73
2023/01/14 00:41:41;;;;;;;24.10;14.45;;;;;;;4.05;73.33;95067.34;5094434;28;20507;-73
2023/01/14 00:44:07;;;;;;;25.05;14.50;;;;;;;3.97;73.48;95058.28;5111500;28;20043;-73
2023/01/14 00:46:33;;;;;;;22.45;14.27;;;;;;;3.88;73.46;95051.06;5075909;28;20031;-73
2023/01/14 00:48:59;;;;;;;26.67;15.40;;;;;;;3.96;73.60;95064.34;5111121;28;20481;-73
2023/01/14 00:51:25;;;;;;;24.42;14.85;;;;;;;4.05;73.50;95064.75;5077310;28;20051;-72
2023/01/14 00:53:50;;;;;;;25.55;13.48;;;;;;;4.05;73.27;95049.34;5094083;28;20031;-73
2023/01/14 00:56:18;;;;;;;22.73;13.63;;;;;;;4.02;73.28;95046.00;5093965;28;20148;-73
2023/01/14 00:58:43;;;;;;;20.55;12.90;;;;;;;4.08;73.19;95059.47;5094396;28;20031;-73
2023/01/14 01:01:09;;;;;;;21.08;11.95;;;;;;;4.06;73.17;95066.41;5112233;28;20034;-73
2023/01/14 01:03:39;;;;;;;19.55;11.02;;;;;;;4.06;73.06;95067.25;5110894;28;20042;-73
2023/01/14 01:06:05;;;;;;;20.38;11.82;;;;;;;4.06;73.29;95053.56;5093896;28;20023;-73
2023/01/14 01:08:31;;;;;;;19.73;12.35;;;;;;;4.05;73.10;95065.59;5110857;28;20093;-73
2023/01/14 01:10:56;;;;;;;23.52;12.93;;;;;;;4.06;73.39;95066.41;5094059;28;20051;-74
2023/01/14 01:13:22;;;;;;;19.95;11.48;;;;;;;4.10;73.53;95058.47;5110720;28;20040;-73
2023/01/14 01:15:48;;;;;;;22.55;12.27;;;;;;;3.98;73.71;95049.66;5093542;28;20019;-73
2023/01/14 01:18:13;;;;;;;21.58;13.00;;;;;;;3.99;73.63;95051.31;5110674;28;20110;-73
2023/01/14 01:20:39;;;;;;;21.92;13.23;;;;;;;4.02;73.56;95065.75;5127814;27;20028;-73
2023/01/14 01:23:04;;;;;;;24.90;14.77;;;;;;;3.86;73.58;95063.16;5110713;28;20120;-73
2023/01/14 01:25:30;;;;;;;25.10;15.88;;;;;;;3.86;73.87;95060.59;5110186;28;20034;-73
2023/01/14 01:27:56;;;;;;;27.80;16.27;;;;;;;3.68;73.88;95031.56;5110008;28;20390;-73
2023/01/14 01:30:21;;;;;;;26.75;15.27;;;;;;;3.90;74.24;95062.09;5127885;27;20534;-73
2023/01/14 01:32:47;;;;;;;23.65;14.85;;;;;;;3.91;73.97;95058.59;5127628;28;20032;-73
2023/01/14 01:35:12;;;;;;;24.08;14.55;;;;;;;3.89;73.87;95060.41;5110388;28;20023;-73
2023/01/14 01:37:38;;;;;;;30.85;16.42;;;;;;;3.92;73.83;95052.53;5093521;28;20460;-73
2023/01/14 01:40:04;;;;;;;26.88;16.35;;;;;;;3.91;73.55;95045.75;5110533;28;20493;-73
2023/01/14 01:42:33;;;;;;;25.73;16.15;;;;;;;3.86;73.83;95037.44;5144584;27;20024;-72
2023/01/14 01:45:17;;;;;;;25.58;15.63;;;;;;;3.93;73.59;95056.78;5126956;28;20031;-73
2023/01/14 01:47:43;;;;;;;26.30;16.15;;;;;;;3.97;73.58;95058.28;5110310;28;20032;-73
2023/01/14 01:50:08;;;;;;;28.75;16.73;;;;;;;3.91;73.41;95026.94;5110723;28;20534;-73
2023/01/14 01:52:34;;;;;;;25.70;15.38;;;;;;;3.94;73.68;95043.03;5110487;28;20175;-73
2023/01/14 01:55:02;;;;;;;25.77;16.52;;;;;;;3.86;73.67;95036.63;5144430;27;20038;-73
2023/01/14 01:57:27;;;;;;;28.73;16.95;;;;;;;3.92;73.43;95029.41;5143915;27;20028;-73
2023/01/14 01:59:55;;;;;;;26.77;16.85;;;;;;;3.91;73.55;95020.06;5109747;28;20463;-73
2023/01/14 02:02:20;;;;;;;25.73;16.17;;;;;;;3.82;73.57;95015.41;5109456;28;20034;-73
2023/01/14 02:04:46;;;;;;;26.55;17.00;;;;;;;3.65;73.56;94992.31;5125687;28;20428;-73
2023/01/14 02:07:20;;;;;;;24.50;16.30;;;;;;;3.83;73.76;95017.06;5092847;28;20036;-73
2023/01/14 02:09:45;;;;;;;21.83;14.52;;;;;;;3.77;73.74;95007.09;5076820;28;20542;-73
2023/01/14 02:12:38;;;;;;;24.45;15.35;;;;;;;3.93;73.40;95027.69;5093199;28;20114;-73
2023/01/14 02:15:07;;;;;;;23.15;14.02;;;;;;;3.88;73.39;95022.78;5111372;28;20043;-72
2023/01/14 02:18:06;;;;;;;22.58;14.13;;;;;;;3.89;73.41;95021.03;5109922;28;20020;-73
2023/01/14 02:20:42;;;;;;;20.35;12.73;;;;;;;3.80;73.56;95017.22;5109906;28;20031;-73
2023/01/14 02:23:19;;;;;;;16.70;11.13;;;;;;;3.81;73.68;95022.25;5126869;28;20036;-73
2023/01/14 02:25:45;;;;;;;18.35;11.13;;;;;;;3.84;73.55;95026.41;5109884;28;20034;-73
2023/01/14 02:28:48;;;;;;;14.65;9.65;;;;;;;3.86;72.96;95029.75;5110858;28;20476;-73
2023/01/14 02:31:42;;;;;;;15.25;8.68;;;;;;;3.84;73.28;95030.72;5111117;28;20065;-73
2023/01/14 02:34:16;;;;;;;15.02;9.43;;;;;;;3.79;73.40;95031.00;5107401;27;20122;-73
2023/01/14 02:36:59;;;;;;;13.77;8.18;;;;;;;3.79;73.52;95015.56;5111014;28;20023;-73
2023/01/14 02:39:48;;;;;;;12.25;8.35;;;;;;;3.81;73.36;95021.44;5128457;27;20500;-73
2023/01/14 02:45:29;;;;;;;12.10;8.85;;;;;;;3.92;73.35;95029.41;5142231;27;20089;-73
2023/01/14 02:47:54;;;;;;;13.52;8.82;;;;;;;3.91;73.18;95026.94;5130337;27;20050;-73
2023/01/14 02:50:20;;;;;;;14.05;9.32;;;;;;;3.72;73.55;95011.66;5130817;27;20036;-73
2023/01/14 02:52:45;;;;;;;16.05;9.50;;;;;;;3.83;73.66;95029.91;5130453;27;20130;-73
2023/01/14 02:55:29;;;;;;;11.45;9.23;;;;;;;3.84;73.75;95028.97;5113508;28;20061;-73
2023/01/14 02:58:07;;;;;;;14.45;8.45;;;;;;;3.78;73.76;95022.44;5113310;28;20043;-73
2023/01/14 03:00:50;;;;;;;15.05;8.57;;;;;;;3.73;73.47;95003.03;5114411;28;20484;-73
2023/01/14 03:03:53;;;;;;;12.45;8.30;;;;;;;3.81;73.65;95026.56;5114679;28;20058;-73
2023/01/14 03:06:38;;;;;;;10.02;7.20;;;;;;;3.85;74.00;95029.84;5113111;28;20420;-73
2023/01/14 03:09:12;;;;;;;11.85;8.55;;;;;;;3.95;73.63;95025.84;5147741;27;20024;-73
2023/01/14 03:11:53;;;;;;;11.52;7.75;;;;;;;3.91;73.45;95026.94;5147519;27;20027;-73
2023/01/14 03:14:37;;;;;;;;;;;;;;;3.86;73.64;95019.47;5112163;28;20039;-73
2023/01/14 03:17:19;;;;;;;10.82;7.65;;;;;;;3.86;73.75;95027.16;5113901;28;19918;-73
2023/01/14 03:19:47;;;;;;;;;;;;;;;3.85;73.90;95029.84;5125965;27;20172;-73
2023/01/14 03:22:12;;;;;;;12.20;8.73;;;;;;;3.74;73.98;95027.84;5111071;28;19916;-73
2023/01/14 03:24:43;;;;;;;16.98;11.27;;;;;;;3.65;74.21;95025.72;5112922;28;20028;-73
2023/01/14 03:27:21;;;;;;;16.40;11.10;;;;;;;3.64;74.05;95024.91;5129802;27;20019;-73
2023/01/14 03:29:47;;;;;;;15.68;9.73;;;;;;;3.68;74.09;95026.41;5129249;27;20130;-73
2023/01/14 03:32:24;;;;;;;14.52;10.10;;;;;;;3.75;74.10;95029.47;5129474;27;20019;-73
2023/01/14 03:35:11;;;;;;;17.35;11.27;;;;;;;3.74;74.21;95032.97;5129724;27;20104;-73
2023/01/14 03:37:41;;;;;;;16.75;10.77;;;;;;;3.77;74.05;95028.50;5102258;28;20536;-73
2023/01/14 03:40:09;;;;;;;14.95;10.57;;;;;;;3.79;74.25;95018.16;5129601;27;20038;-73
2023/01/14 03:42:38;;;;;;;18.95;11.40;;;;;;;3.74;74.10;95020.94;5129400;27;20039;-73
2023/01/14 03:45:10;;;;;;;16.25;11.00;;;;;;;3.80;74.06;95024.94;5128074;27;20031;-73
2023/01/14 03:47:36;;;;;;;14.90;10.32;;;;;;;3.77;73.87;95025.91;5111589;28;20042;-73
2023/01/14 03:50:04;;;;;;;15.80;10.95;;;;;;;3.87;73.70;95026.25;5110088;28;20020;-73
2023/01/14 03:52:51;;;;;;;14.13;10.30;;;;;;;3.92;73.52;95039.69;5111449;28;20031;-73
2023/01/14 03:55:19;;;;;;;14.85;10.35;;;;;;;3.86;73.87;95036.63;5111181;28;20047;-73
2023/01/14 03:58:07;;;;;;;16.92;11.38;;;;;;;3.87;73.87;95036.53;5094350;28;20050;-73
2023/01/14 04:00:54;;;;;;;19.05;12.55;;;;;;;3.79;74.10;95018.97;5103950;28;20031;-73
2023/01/14 04:03:19;;;;;;;17.77;12.57;;;;;;;3.76;74.21;95010.56;5078176;28;20389;-73
2023/01/14 04:05:45;;;;;;;19.55;12.07;;;;;;;3.85;74.01;95022.13;5094639;28;20038;-73
2023/01/14 04:08:10;;;;;;;18.25;11.57;;;;;;;3.91;73.68;95020.06;5094931;28;20466;-73
2023/01/14 04:10:36;;;;;;;17.52;11.13;;;;;;;3.88;73.88;95021.97;5094724;28;20027;-73
2023/01/14 04:15:45;;;;;;;14.38;10.63;;;;;;;3.88;73.97;95022.78;5097636;28;20055;-73
2023/01/14 04:18:10;;;;;;;16.73;11.10;;;;;;;3.80;74.17;95019.78;5111457;28;20489;-73
2023/01/14 04:20:36;;;;;;;16.73;11.48;;;;;;;3.83;73.89;95024.75;5112898;28;20037;-73
2023/01/14 04:23:01;;;;;;;15.52;9.80;;;;;;;3.84;73.58;95026.41;5111671;28;20396;-73
2023/01/14 04:25:27;;;;;;;13.45;9.05;;;;;;;3.74;73.04;95000.38;5112871;28;20066;-73
2023/01/14 04:27:52;;;;;;;13.20;8.60;;;;;;;3.73;73.50;95008.16;5111008;28;20038;-73
2023/01/14 04:30:18;;;;;;;11.15;7.80;;;;;;;3.89;72.32;95018.47;5094565;28;20028;-73
2023/01/14 04:32:43;;;;;;;11.20;7.68;;;;;;;3.91;72.50;95017.47;5111362;28;20035;-73
2023/01/14 04:35:09;;;;;;;10.55;7.03;;;;;;;3.89;72.12;95011.59;5111803;28;20034;-73
2023/01/14 04:37:34;;;;;;;10.27;7.05;;;;;;;3.77;72.08;95017.38;5094199;28;20134;-73
2023/01/14 04:40:00;;;;;;;10.38;6.80;;;;;;;3.83;71.77;95005.94;5112494;28;20149;-73
2023/01/14 04:42:28;;;;;;;10.63;7.25;;;;;;;3.84;71.88;95005.03;5109924;28;20096;-73
2023/01/14 04:44:57;;;;;;;10.35;6.45;;;;;;;3.85;71.59;95004.13;5103012;27;20104;-73
2023/01/14 04:47:23;;;;;;;10.70;6.82;;;;;;;3.83;71.85;95006.78;5088168;28;20027;-73
2023/01/14 04:49:49;;;;;;;10.02;6.60;;;;;;;3.84;71.46;95005.84;5089553;28;20023;-73
2023/01/14 04:52:14;;;;;;;8.90;5.90;;;;;;;3.83;72.24;95011.91;5104594;28;20035;-72
2023/01/14 04:54:40;;;;;;;9.73;6.45;;;;;;;3.78;72.47;95009.56;5108815;28;20077;-73
2023/01/14 04:57:05;;;;;;;8.52;5.72;;;;;;;3.79;72.39;95008.69;5106237;28;20030;-72
2023/01/14 04:59:31;;;;;;;10.73;6.50;;;;;;;3.79;72.26;95018.16;5106273;28;20058;-72
2023/01/14 05:01:56;;;;;;;9.57;6.20;;;;;;;3.86;72.31;95011.75;5105263;28;20492;-72
2023/01/14 05:04:22;;;;;;;9.30;6.90;;;;;;;3.84;72.02;95013.56;5091076;28;20531;-72
2023/01/14 05:06:47;;;;;;;8.98;6.22;;;;;;;3.84;71.72;95016.13;5106681;27;20038;-72
2023/01/14 05:09:13;;;;;;;9.82;6.88;;;;;;;3.90;70.91;95018.41;5107606;28;20035;-73
2023/01/14 05:11:38;;;;;;;9.57;6.57;;;;;;;3.81;70.87;95006.03;5105431;28;20048;-74
2023/01/14 05:14:03;;;;;;;10.40;6.85;;;;;;;3.81;70.34;95011.16;5107105;28;20467;-73
2023/01/14 05:16:29;;;;;;;7.47;5.63;;;;;;;3.70;69.78;95000.63;5088447;28;20020;-75
2023/01/14 05:18:54;;;;;;;10.30;6.88;;;;;;;3.75;69.68;95003.78;5089019;28;20489;-73
2023/01/14 05:21:21;;;;;;;10.52;7.10;;;;;;;3.77;69.61;95010.50;5104071;27;20071;-73
2023/01/14 05:23:46;;;;;;;9.02;5.97;;;;;;;3.74;69.01;95007.28;5106716;28;20036;-74
2023/01/14 05:26:12;;;;;;;8.02;5.38;;;;;;;3.75;69.34;95016.63;5089041;28;20012;-73
2023/01/14 05:28:37;;;;;;;8.05;5.40;;;;;;;3.75;69.17;95017.44;5103484;28;20193;-73
2023/01/14 05:31:03;;;;;;;8.23;5.43;;;;;;;3.72;69.49;95020.19;5089327;28;20030;-73
2023/01/14 05:33:30;;;;;;;8.18;5.50;;;;;;;3.67;69.29;95005.91;5105941;28;20036;-73
2023/01/14 05:35:58;;;;;;;9.20;5.78;;;;;;;3.48;69.21;94973.50;5090082;28;20027;-74
2023/01/14 05:38:24;;;;;;;8.02;5.90;;;;;;;3.69;69.31;95016.97;5107282;28;20096;-73
2023/01/14 05:40:50;;;;;;;7.80;5.03;;;;;;;3.60;69.55;94996.91;5089949;28;20611;-73
2023/01/14 05:46:05;;;;;;;6.95;4.93;;;;;;;3.67;69.99;95013.63;5092430;28;20053;-73
2023/01/14 05:48:30;;;;;;;8.00;5.30;;;;;;;3.58;70.40;95002.94;5088667;28;20051;-73
2023/01/14 05:50:57;;;;;;;6.93;4.78;;;;;;;3.62;70.73;95005.34;5089721;28;20509;-73
2023/01/14 05:53:22;;;;;;;8.43;5.60;;;;;;;3.73;69.78;95023.59;5104803;28;20038;-73
2023/01/14 05:55:48;;;;;;;8.52;5.65;;;;;;;3.54;69.96;95008.31;5088675;28;20035;-73
2023/01/14 05:58:14;;;;;;;7.13;4.80;;;;;;;3.57;70.02;95021.00;5072459;28;20421;-73
2023/01/14 06:06:21;;;;;;;8.07;5.90;;;;;;;3.52;69.77;95016.09;5088075;28;20099;-73
2023/01/14 06:08:47;;;;;;;8.40;5.70;;;;;;;3.60;69.95;95027.72;5106010;28;20500;-73
2023/01/14 06:11:12;;;;;;;7.75;5.70;;;;;;;3.48;69.89;95003.47;5088804;28;20038;-74
2023/01/14 06:13:38;;;;;;;9.40;5.40;;;;;;;3.47;70.16;95007.78;5106861;28;20055;-74
2023/01/14 06:16:06;;;;;;;8.25;5.72;;;;;;;3.63;69.33;95022.44;5110167;28;20031;-73
2023/01/14 06:18:38;;;;;;;10.50;6.35;;;;;;;3.53;70.00;95015.19;5093516;28;20039;-73
2023/01/14 06:21:03;;;;;;;;;;;;;;;3.66;69.82;95023.09;5111062;28;20024;-73
2023/01/14 06:23:29;;;;;;;12.13;7.22;;;;;;;3.64;69.79;95018.94;5092985;28;20313;-73
2023/01/14 06:25:54;;;;;;;17.50;8.35;;;;;;;3.58;69.78;95020.91;5093200;28;20030;-73
2023/01/14 06:28:20;;;;;;;16.45;8.73;;;;;;;3.42;69.89;95007.19;5093057;28;20059;-73
2023/01/14 06:30:45;;;;;;;16.58;9.23;;;;;;;3.57;70.03;95023.56;5110000;28;20039;-73
2023/01/14 06:33:11;;;;;;;15.88;8.98;;;;;;;3.50;69.96;95025.63;5109705;28;20038;-73
2023/01/14 06:35:43;;;;;;;14.18;8.15;;;;;;;3.59;69.80;95026.88;5092979;28;20031;-73
2023/01/14 06:38:12;;;;;;;14.00;8.20;;;;;;;3.59;69.58;95029.44;5108449;28;20034;-73
2023/01/14 06:40:38;;;;;;;13.32;7.05;;;;;;;3.61;69.05;95037.09;5075161;28;20055;-73
2023/01/14 06:43:04;;;;;;;11.55;5.95;;;;;;;3.72;68.36;95032.22;5109694;28;20521;-73
2023/01/14 06:45:29;;;;;;;9.90;6.00;;;;;;;3.60;68.56;95018.28;5092879;27;20061;-73
2023/01/14 06:47:55;;;;;;;10.50;6.47;;;;;;;3.67;68.64;95044.47;5109405;27;20032;-73
2023/01/14 06:50:20;;;;;;;8.55;5.28;;;;;;;3.77;67.82;95040.50;5092166;28;20044;-73
2023/01/14 06:52:48;;;;;;;8.25;5.82;;;;;;;3.78;67.56;95031.88;5108202;28;20085;-73
2023/01/14 06:55:14;;;;;;;18.15;12.85;;;;;;;3.84;68.40;95041.00;5107651;28;20504;-73
2023/01/14 06:57:40;;;;;;;35.75;23.13;;;;;;;3.91;70.30;95043.19;5091559;28;20122;-73
2023/01/14 07:00:07;;;;;;;40.78;23.70;;;;;;;3.85;71.66;95012.66;5109646;28;20019;-73
2023/01/14 07:02:32;;;;;;;51.33;30.98;;;;;;;3.92;71.98;95044.81;5105569;28;20035;-73
2023/01/14 07:04:58;;;;;;;48.80;31.30;;;;;;;3.94;72.29;95043.03;5109783;28;20417;-73
2023/01/14 07:07:23;;;;;;;42.33;28.67;;;;;;;4.02;72.39;95043.44;5090077;28;20020;-73
2023/01/14 07:09:48;;;;;;;56.90;34.75;;;;;;;3.97;72.90;95044.59;5109676;28;20019;-73
2023/01/14 07:12:14;;;;;;;70.20;39.90;;;;;;;3.95;72.89;95049.81;5124234;27;20031;-73
2023/01/14 07:14:39;;;;;;;69.63;39.15;;;;;;;4.03;73.06;95059.69;5109195;28;20038;-73
2023/01/14 07:17:05;;;;;;;64.30;33.58;;;;;;;3.94;73.23;95055.03;5109928;27;20027;-73
2023/01/14 07:19:30;;;;;;;85.47;48.38;;;;;;;3.90;73.38;95061.25;5091809;28;20039;-73
2023/01/14 07:21:56;;;;;;;56.38;32.88;;;;;;;4.00;73.35;95058.09;5072468;28;20036;-73
2023/01/14 07:24:22;;;;;;;55.33;31.98;;;;;;;4.03;73.15;95057.13;5074562;28;20529;-73
2023/01/14 07:26:47;;;;;;;64.05;38.72;;;;;;;3.97;73.30;95063.41;5090520;28;20520;-73
2023/01/14 07:29:14;;;;;;;78.35;43.78;;;;;;;4.00;73.46;95067.56;5107866;28;20096;-73
2023/01/14 07:31:40;;;;;;;75.93;43.08;;;;;;;3.85;73.55;95043.50;5105107;28;20042;-73
2023/01/14 07:34:05;;;;;;;60.75;34.90;;;;;;;4.10;73.22;95075.63;5142421;27;20040;-73
2023/01/14 07:36:31;;;;;;;60.22;37.47;;;;;;;4.13;72.98;95075.47;5091722;28;20409;-73
2023/01/14 07:38:56;;;;;;;52.20;32.63;;;;;;;3.40;72.81;94965.38;5090877;27;20413;-72
2023/01/14 07:41:22;;;;;;;72.53;41.30;;;;;;;3.92;72.86;95049.16;5089924;28;20024;-72
2023/01/14 07:43:48;;;;;;;60.47;36.65;;;;;;;4.14;73.19;95079.69;5109720;28;20047;-72
2023/01/14 07:46:14;;;;;;;73.05;43.75;;;;;;;4.18;72.28;95071.75;5108040;28;20055;-72
2023/01/14 07:48:40;;;;;;;49.92;31.10;;;;;;;4.21;72.57;95076.72;5083915;28;20020;-69
2023/01/14 07:51:06;;;;;;;45.17;27.77;;;;;;;4.11;72.62;95060.13;5109725;28;20039;-71
2023/01/14 07:53:32;;;;;;;48.05;28.90;;;;;;;4.26;72.69;95073.88;5105697;28;20039;-71
2023/01/14 07:56:00;;;;;;;45.83;28.98;;;;;;;4.28;72.56;95076.38;5108726;28;20069;-71
2023/01/14 07:58:25;;;;;;;53.78;31.40;;;;;;;3.97;72.26;95032.56;5090298;28;20054;-73
2023/01/14 08:00:51;;;;;;;56.20;33.75;;;;;;;4.26;72.34;95061.03;5111681;27;20488;-72
2023/01/14 08:03:16;;;;;;;60.83;35.25;;;;;;;4.37;72.19;95081.03;5107243;27;20092;-70
2023/01/14 08:05:42;;;;;;;59.33;32.80;;;;;;;4.33;72.04;95075.22;5109479;27;20038;-72
2023/01/14 08:08:07;;;;;;;55.28;33.40;;;;;;;4.39;72.45;95087.75;5107773;28;20040;-72
2023/01/14 08:10:33;;;;;;;58.72;33.08;;;;;;;4.32;73.14;95081.28;5106804;28;20028;-69
2023/01/14 08:12:58;;;;;;;57.05;33.10;;;;;;;4.30;72.65;95075.38;5104792;28;20051;-71
2023/01/14 08:15:23;;;;;;;130.55;64.22;;;;;;;4.37;72.69;95087.00;5072797;28;20038;-74
2023/01/14 08:17:50;;;;;;;128.57;58.85;;;;;;;4.40;71.95;95091.13;5088954;28;20028;-73
2023/01/14 08:20:17;;;;;;;51.55;28.60;;;;;;;4.29;71.63;95078.03;5107622;28;20532;-73
2023/01/14 08:22:43;;;;;;;20.65;13.82;;;;;;;4.32;70.08;95083.84;5105525;28;20126;-71
2023/01/14 08:25:08;;;;;;;22.73;10.90;;;;;;;4.44;68.24;95093.47;5107946;28;20027;-71
2023/01/14 08:27:34;;;;;;;48.35;17.92;;;;;;;4.37;66.78;95089.56;5107203;27;20050;-73
2023/01/14 08:29:59;;;;;;;16.13;8.43;;;;;;;4.41;66.22;95091.06;5107604;28;20059;-70
2023/01/14 08:32:25;;;;;;;12.52;8.32;;;;;;;4.30;65.78;95101.09;5105681;28;20089;-73
2023/01/14 08:34:50;;;;;;;25.58;16.50;;;;;;;4.36;65.18;95081.94;5107048;28;20505;-71
2023/01/14 08:37:16;;;;;;;15.15;7.85;;;;;;;4.54;64.83;95103.25;5087299;28;20019;-72
2023/01/14 08:39:41;;;;;;;8.18;4.60;;;;;;;4.33;63.89;95085.50;5089748;28;20035;-71
2023/01/14 08:42:06;;;;;;;7.80;4.55;;;;;;;4.30;64.50;95087.44;5072265;28;20031;-70
2023/01/14 08:44:32;;;;;;;4.93;3.53;;;;;;;4.45;64.16;95097.69;5089095;28;20501;-72
2023/01/14 08:46:57;;;;;;;44.75;24.40;;;;;;;4.61;63.73;95099.44;5108059;28;20493;-73
2023/01/14 08:49:23;;;;;;;10.60;6.75;;;;;;;4.63;63.29;95083.00;5108835;28;20101;-70
2023/01/14 08:51:49;;;;;;;9.15;5.43;;;;;;;4.66;64.01;95097.47;5105639;28;20034;-71
2023/01/14 08:54:14;;;;;;;8.13;5.70;;;;;;;4.73;64.03;95109.06;5112392;27;20331;-72
2023/01/14 08:56:40;;;;;;;10.65;8.05;;;;;;;4.87;64.13;95103.16;5089551;28;20313;-72
2023/01/14 08:59:05;;;;;;;8.02;5.05;;;;;;;4.97;62.80;95101.72;5088915;28;20040;-71
2023/01/14 09:01:31;;;;;;;6.00;3.78;;;;;;;4.82;61.83;95085.41;5104470;28;20124;-70
2023/01/14 09:04:00;;;;;;;5.68;3.88;;;;;;;4.92;61.88;95094.25;5106365;28;20047;-71
2023/01/14 09:06:25;;;;;;;6.28;4.65;;;;;;;5.02;62.87;95088.59;5105496;27;20049;-72
2023/01/14 09:17:11;;;;;;;12.82;6.20;;;;;;;4.88;62.61;95074.75;5092007;27;20041;-71
2023/01/14 09:19:47;;;;;;;9.35;5.25;;;;;;;5.08;62.62;95067.66;5107529;28;20531;-70
2023/01/14 09:22:17;;;;;;;17.67;7.78;;;;;;;5.07;61.94;95069.41;5102371;28;20028;-73
2023/01/14 09:24:42;;;;;;;34.58;12.10;;;;;;;5.08;62.21;95077.94;5090212;28;20066;-73
2023/01/14 09:27:08;;;;;;;12.38;6.72;;;;;;;5.07;61.87;95045.38;5104677;28;20501;-74
2023/01/14 09:29:33;;;;;;;17.65;7.72;;;;;;;5.36;61.78;95067.69;5107242;28;20394;-73
2023/01/14 09:31:59;;;;;;;15.15;7.57;;;;;;;5.34;61.38;95061.81;5087665;28;20028;-73
2023/01/14 09:34:24;;;;;;;12.30;6.72;;;;;;;5.52;61.28;95046.19;5090030;28;20562;-73
2023/01/14 09:36:50;;;;;;;16.00;7.63;;;;;;;5.81;61.35;95053.00;5105907;28;20032;-73
2023/01/14 09:39:16;;;;;;;7.57;4.85;;;;;;;5.71;60.08;95044.19;5105849;28;20055;-73
2023/01/14 09:41:53;;;;;;;34.20;13.88;;;;;;;5.90;60.21;95058.53;5070633;28;20151;-73
2023/01/14 09:44:18;;;;;;;19.52;9.82;;;;;;;6.18;59.25;95055.94;5089787;28;20562;-73
2023/01/14 09:46:44;;;;;;;11.63;6.68;;;;;;;6.39;59.15;95050.41;5104618;28;20069;-73
2023/01/14 09:49:09;;;;;;;9.30;7.18;;;;;;;6.32;59.24;95031.06;5091029;28;20039;-73
2023/01/14 09:52:12;;;;;;;11.23;8.38;;;;;;;6.65;59.12;95059.88;5107934;28;20039;-72
2023/01/14 09:54:56;;;;;;;12.10;8.07;;;;;;;6.57;59.19;95027.75;5095772;28;20535;-74
2023/01/14 09:57:31;;;;;;;10.77;6.68;;;;;;;6.60;58.96;95051.63;5108434;28;20089;-73
2023/01/14 09:59:58;;;;;;;9.55;7.32;;;;;;;6.69;58.50;95035.56;5140661;27;20080;-72
2023/01/14 10:02:40;;;;;;;10.27;7.50;;;;;;;7.02;57.64;95042.06;5108138;28;20120;-72
2023/01/14 10:05:22;;;;;;;10.52;7.25;;;;;;;7.27;57.60;95045.59;5108819;28;20063;-73
2023/01/14 10:07:48;;;;;;;7.18;5.60;;;;;;;7.12;57.15;95031.94;5124490;27;20042;-73
2023/01/14 10:10:35;;;;;;;6.22;4.55;;;;;;;7.40;55.44;95041.28;5092477;28;20039;-73
2023/01/14 10:13:03;;;;;;;8.55;5.57;;;;;;;7.42;55.64;95034.25;5074501;28;20043;-73
2023/01/14 10:15:34;;;;;;;8.82;5.78;;;;;;;7.49;55.24;95030.31;5109413;28;20262;-72
2023/01/14 10:18:20;;;;;;;9.55;6.38;;;;;;;7.31;56.12;95021.22;5108434;28;20501;-73
2023/01/14 10:21:02;;;;;;;8.90;6.70;;;;;;;7.55;55.65;95017.00;5089337;27;20040;-73
2023/01/14 10:23:39;;;;;;;7.88;5.65;;;;;;;7.70;54.91;95012.53;5106214;28;20039;-72
2023/01/14 10:26:31;;;;;;;7.03;5.38;;;;;;;7.42;54.85;95008.41;5075090;28;20568;-73
2023/01/14 10:28:59;;;;;;;7.72;5.28;;;;;;;7.65;54.69;95012.00;5092849;28;20065;-72
2023/01/14 10:31:30;;;;;;;6.82;5.00;;;;;;;7.90;54.58;95011.16;5090361;28;20247;-73
2023/01/14 10:33:56;;;;;;;6.80;5.03;;;;;;;8.09;53.55;95015.88;5091836;28;20036;-73
2023/01/14 10:36:22;;;;;;;6.90;5.43;;;;;;;8.12;53.85;95002.72;5110871;28;20039;-73
2023/01/14 10:38:48;;;;;;;7.30;5.32;;;;;;;8.01;54.02;95010.41;5074950;28;20111;-73
2023/01/14 10:41:13;;;;;;;8.80;5.53;;;;;;;8.11;54.04;95002.81;5090827;28;20465;-73
2023/01/14 10:43:42;;;;;;;7.53;5.10;;;;;;;8.23;53.34;94999.38;5107940;28;20044;-73
2023/01/14 10:46:17;;;;;;;8.23;5.57;;;;;;;8.46;52.98;95006.38;5092957;28;20058;-73
2023/01/14 10:48:50;;;;;;;20.30;9.23;;;;;;;8.41;52.85;95005.91;5088786;28;20088;-73
2023/01/14 10:51:49;;;;;;;12.75;7.97;;;;;;;8.45;52.65;94998.72;5092505;28;20473;-73
2023/01/14 10:54:22;;;;;;;14.27;7.63;;;;;;;8.34;52.86;94994.28;5080834;28;20098;-73
2023/01/14 10:56:55;;;;;;;11.90;7.10;;;;;;;8.41;52.68;94981.75;5108230;28;20114;-73
2023/01/14 10:59:28;;;;;;;18.73;8.90;;;;;;;8.57;52.57;94987.47;5092542;28;20043;-73
2023/01/14 11:01:54;;;;;;;12.98;7.30;;;;;;;8.76;51.52;94988.75;5107934;27;20038;-74
2023/01/14 11:04:21;;;;;;;12.05;7.43;;;;;;;8.83;50.87;94983.00;5109611;28;20430;-73
2023/01/14 11:06:47;;;;;;;9.50;6.38;;;;;;;8.63;51.25;94960.31;5090825;28;20031;-73
2023/01/14 11:09:22;;;;;;;13.15;8.90;;;;;;;8.65;52.11;94968.81;5089928;28;20104;-73
2023/01/14 11:11:48;;;;;;;18.92;9.45;;;;;;;8.62;52.19;94974.22;5087282;28;20567;-73
2023/01/14 11:14:36;;;;;;;17.98;9.85;;;;;;;8.74;51.67;94975.91;5103646;28;20027;-73
2023/01/14 11:17:24;;;;;;;14.88;9.25;;;;;;;8.87;51.66;94970.66;5088500;28;20433;-73
2023/01/14 11:19:51;;;;;;;10.85;7.97;;;;;;;8.68;52.20;94969.41;5108725;27;20032;-72
2023/01/14 11:22:16;;;;;;;11.15;7.57;;;;;;;8.58;52.34;94977.94;5103914;28;20019;-73
2023/01/14 11:24:46;;;;;;;13.13;8.57;;;;;;;8.44;52.16;94976.34;5089560;28;20553;-73
2023/01/14 11:27:19;;;;;;;11.30;7.90;;;;;;;8.46;52.24;94975.31;5088587;28;20534;-73
2023/01/14 11:29:48;;;;;;;20.10;12.38;;;;;;;8.55;52.49;94979.00;5090853;28;20077;-73
2023/01/14 11:32:14;;;;;;;15.45;9.07;;;;;;;8.58;51.50;94973.63;5108192;28;20023;-73
2023/01/14 11:35:00;;;;;;;12.40;8.32;;;;;;;8.62;52.14;94977.63;5107900;28;20031;-74
2023/01/14 11:37:31;;;;;;;19.58;11.82;;;;;;;8.54;52.42;94979.13;5103326;28;20077;-72
2023/01/14 11:39:57;;;;;;;18.93;13.40;;;;;;;8.47;52.71;94981.34;5088779;28;20027;-73
2023/01/14 11:42:26;;;;;;;14.32;10.40;;;;;;;8.53;52.70;94985.25;5103894;28;20354;-72
2023/01/14 11:45:00;;;;;;;17.75;11.98;;;;;;;8.35;53.32;94982.97;5101556;28;20047;-72
2023/01/14 11:47:26;;;;;;;16.77;10.30;;;;;;;8.45;53.49;94989.19;5108061;27;20027;-73
2023/01/14 11:50:14;;;;;;;19.02;11.45;;;;;;;8.38;53.28;94971.59;5090541;28;20057;-72
2023/01/14 11:52:39;;;;;;;17.58;12.10;;;;;;;8.38;53.19;94982.75;5086635;28;20541;-72
2023/01/14 11:55:12;;;;;;;17.90;11.70;;;;;;;8.35;52.89;94988.16;5107046;28;20032;-72
2023/01/14 11:57:37;;;;;;;29.13;15.98;;;;;;;8.26;53.25;94994.00;5089338;28;20107;-73
2023/01/14 12:00:03;;;;;;;28.00;16.63;;;;;;;8.21;53.51;94990.91;5109633;28;20383;-73
2023/01/14 12:02:50;;;;;;;34.97;19.65;;;;;;;8.07;53.79;94990.09;5089602;28;20031;-72